sensor_id;sensor_type;location;lat;lon;timestamp;pressure;altitude;pressure_sealevel;temperature;humidity
9235;BME280;4652;42.716;23.218;2022-12-07T00:03:17;94859.78;;;5.92;100.00
9235;BME280;4652;42.716;23.218;2022-12-07T00:10:00;94860.09;;;6.01;100.00
9235;BME280;4652;42.716;23.218;2022-12-07T00:16:43;94866.16;;;5.91;100.00
9235;BME280;4652;42.716;23.218;2022-12-07T00:23:25;94857.63;;;5.89;100.00
9235;BME280;4652;42.716;23.218;2022-12-07T00:30:09;94867.94;;;5.75;100.00
9235;BME280;4652;42.716;23.218;2022-12-07T00:36:52;94872.09;;;5.93;100.00
9235;BME280;4652;42.716;23.218;2022-12-07T00:43:33;94864.66;;;6.05;100.00
9235;BME280;4652;42.716;23.218;2022-12-07T00:50:17;94863.06;;;6.04;100.00
9235;BME280;4652;42.716;23.218;2022-12-07T00:56:59;94855.03;;;5.99;100.00
9235;BME280;4652;42.716;23.218;2022-12-07T01:03:40;94847.03;;;6.04;100.00
9235;BME280;4652;42.716;23.218;2022-12-07T01:10:24;94809.94;;;5.71;100.00
9235;BME280;4652;42.716;23.218;2022-12-07T01:17:06;94843.25;;;6.00;100.00
9235;BME280;4652;42.716;23.218;2022-12-07T01:23:48;94835.22;;;5.95;100.00
9235;BME280;4652;42.716;23.218;2022-12-07T01:30:32;94836.53;;;5.93;100.00
9235;BME280;4652;42.716;23.218;2022-12-07T01:37:14;94832.53;;;5.95;100.00
9235;BME280;4652;42.716;23.218;2022-12-07T01:44:14;94829.34;;;5.98;100.00
9235;BME280;4652;42.716;23.218;2022-12-07T01:51:01;94818.91;;;5.97;100.00
9235;BME280;4652;42.716;23.218;2022-12-07T01:57:45;94807.38;;;5.86;100.00
9235;BME280;4652;42.716;23.218;2022-12-07T02:08:11;94797.94;;;5.73;100.00
9235;BME280;4652;42.716;23.218;2022-12-07T02:14:54;94796.59;;;5.76;100.00
9235;BME280;4652;42.716;23.218;2022-12-07T02:21:40;94800.31;;;5.70;100.00
9235;BME280;4652;42.716;23.218;2022-12-07T02:28:31;94817.97;;;5.76;100.00
9235;BME280;4652;42.716;23.218;2022-12-07T02:35:19;94783.91;;;5.51;100.00
9235;BME280;4652;42.716;23.218;2022-12-07T02:42:07;94795.97;;;5.22;100.00
9235;BME280;4652;42.716;23.218;2022-12-07T02:48:51;94794.03;;;5.07;100.00
9235;BME280;4652;42.716;23.218;2022-12-07T02:55:39;94771.31;;;4.73;100.00
9235;BME280;4652;42.716;23.218;2022-12-07T03:02:25;94767.31;;;4.70;100.00
9235;BME280;4652;42.716;23.218;2022-12-07T03:09:15;94769.09;;;4.60;100.00
9235;BME280;4652;42.716;23.218;2022-12-07T03:16:08;94784.78;;;4.56;100.00
9235;BME280;4652;42.716;23.218;2022-12-07T03:22:53;94788.78;;;4.59;100.00
9235;BME280;4652;42.716;23.218;2022-12-07T03:29:38;94789.97;;;4.68;100.00
9235;BME280;4652;42.716;23.218;2022-12-07T03:36:26;94791.56;;;4.69;100.00
9235;BME280;4652;42.716;23.218;2022-12-07T03:43:11;94785.47;;;4.73;100.00
9235;BME280;4652;42.716;23.218;2022-12-07T03:49:58;94759.66;;;4.47;100.00
9235;BME280;4652;42.716;23.218;2022-12-07T03:56:44;94779.56;;;4.66;100.00
9235;BME280;4652;42.716;23.218;2022-12-07T04:03:26;94774.81;;;4.73;100.00
9235;BME280;4652;42.716;23.218;2022-12-07T04:10:10;94774.53;;;4.75;100.00
9235;BME280;4652;42.716;23.218;2022-12-07T04:16:55;94777.84;;;4.87;100.00
9235;BME280;4652;42.716;23.218;2022-12-07T04:23:37;94772.94;;;4.74;100.00
9235;BME280;4652;42.716;23.218;2022-12-07T04:30:20;94779.03;;;5.01;100.00
9235;BME280;4652;42.716;23.218;2022-12-07T04:37:03;94781.56;;;4.86;100.00
9235;BME280;4652;42.716;23.218;2022-12-07T04:43:45;94754.28;;;4.74;100.00
9235;BME280;4652;42.716;23.218;2022-12-07T04:50:27;94783.25;;;4.97;100.00
9235;BME280;4652;42.716;23.218;2022-12-07T04:57:10;94783.31;;;5.02;100.00
9235;BME280;4652;42.716;23.218;2022-12-07T05:03:52;94777.88;;;4.92;100.00
9235;BME280;4652;42.716;23.218;2022-12-07T05:10:34;94770.63;;;4.83;100.00
9235;BME280;4652;42.716;23.218;2022-12-07T05:17:17;94788.34;;;4.67;100.00
9235;BME280;4652;42.716;23.218;2022-12-07T05:23:59;94784.34;;;4.69;100.00
9235;BME280;4652;42.716;23.218;2022-12-07T05:30:42;94783.19;;;4.55;100.00
9235;BME280;4652;42.716;23.218;2022-12-07T05:37:25;94788.34;;;4.67;100.00
9235;BME280;4652;42.716;23.218;2022-12-07T05:44:07;94776.16;;;4.76;100.00
9235;BME280;4652;42.716;23.218;2022-12-07T05:50:50;94774.09;;;4.83;100.00
9235;BME280;4652;42.716;23.218;2022-12-07T05:57:33;94767.44;;;4.86;100.00
9235;BME280;4652;42.716;23.218;2022-12-07T06:04:16;94705.78;;;4.50;100.00
9235;BME280;4652;42.716;23.218;2022-12-07T06:10:57;94781.84;;;4.85;100.00
9235;BME280;4652;42.716;23.218;2022-12-07T06:17:54;94776.03;;;4.93;100.00
9235;BME280;4652;42.716;23.218;2022-12-07T06:24:37;94774.88;;;5.15;100.00
9235;BME280;4652;42.716;23.218;2022-12-07T06:31:19;94797.94;;;5.31;100.00
9235;BME280;4652;42.716;23.218;2022-12-07T06:38:02;94790.06;;;5.52;100.00
9235;BME280;4652;42.716;23.218;2022-12-07T06:44:44;94801.59;;;5.62;100.00
9235;BME280;4652;42.716;23.218;2022-12-07T06:51:26;94799.00;;;5.77;100.00
9235;BME280;4652;42.716;23.218;2022-12-07T06:58:09;94800.75;;;5.99;100.00
9235;BME280;4652;42.716;23.218;2022-12-07T07:04:51;94793.81;;;6.08;100.00
9235;BME280;4652;42.716;23.218;2022-12-07T07:11:33;94791.00;;;6.39;100.00
9235;BME280;4652;42.716;23.218;2022-12-07T07:18:17;94788.63;;;6.48;100.00
9235;BME280;4652;42.716;23.218;2022-12-07T07:24:59;94761.06;;;6.47;100.00
9235;BME280;4652;42.716;23.218;2022-12-07T07:31:41;94788.44;;;7.15;100.00
9235;BME280;4652;42.716;23.218;2022-12-07T07:38:24;94780.34;;;7.40;100.00
9235;BME280;4652;42.716;23.218;2022-12-07T07:45:07;94790.53;;;7.53;100.00
9235;BME280;4652;42.716;23.218;2022-12-07T07:51:49;94755.66;;;7.63;100.00
9235;BME280;4652;42.716;23.218;2022-12-07T07:58:32;94770.19;;;7.47;100.00
9235;BME280;4652;42.716;23.218;2022-12-07T08:08:13;94776.84;;;6.49;100.00
9235;BME280;4652;42.716;23.218;2022-12-07T08:14:55;94782.47;;;6.53;100.00
9235;BME280;4652;42.716;23.218;2022-12-07T08:21:37;94779.06;;;7.23;100.00
9235;BME280;4652;42.716;23.218;2022-12-07T08:28:21;94749.69;;;8.95;100.00
9235;BME280;4652;42.716;23.218;2022-12-07T08:35:03;94752.41;;;9.52;100.00
9235;BME280;4652;42.716;23.218;2022-12-07T08:41:45;94737.78;;;10.11;100.00
9235;BME280;4652;42.716;23.218;2022-12-07T08:48:28;94738.59;;;9.35;100.00
9235;BME280;4652;42.716;23.218;2022-12-07T08:55:11;94735.22;;;9.48;100.00
9235;BME280;4652;42.716;23.218;2022-12-07T09:01:53;94712.31;;;9.79;100.00
9235;BME280;4652;42.716;23.218;2022-12-07T09:08:39;94716.59;;;9.80;100.00
9235;BME280;4652;42.716;23.218;2022-12-07T09:15:22;94714.63;;;9.86;100.00
9235;BME280;4652;42.716;23.218;2022-12-07T09:22:04;94687.63;;;10.20;100.00
9235;BME280;4652;42.716;23.218;2022-12-07T09:28:48;94689.31;;;9.16;100.00
9235;BME280;4652;42.716;23.218;2022-12-07T09:35:29;94655.22;;;9.40;100.00
9235;BME280;4652;42.716;23.218;2022-12-07T09:42:25;94689.44;;;9.06;100.00
9235;BME280;4652;42.716;23.218;2022-12-07T09:49:12;94687.75;;;8.47;100.00
9235;BME280;4652;42.716;23.218;2022-12-07T09:55:56;94684.53;;;9.13;100.00
9235;BME280;4652;42.716;23.218;2022-12-07T10:02:40;94656.72;;;9.51;100.00
9235;BME280;4652;42.716;23.218;2022-12-07T10:09:24;94657.13;;;9.63;100.00
9235;BME280;4652;42.716;23.218;2022-12-07T10:16:30;94642.97;;;10.56;100.00
9235;BME280;4652;42.716;23.218;2022-12-07T10:23:15;94629.00;;;10.17;100.00
9235;BME280;4652;42.716;23.218;2022-12-07T10:29:59;94609.16;;;9.70;100.00
9235;BME280;4652;42.716;23.218;2022-12-07T10:36:41;94617.53;;;10.30;100.00
9235;BME280;4652;42.716;23.218;2022-12-07T10:43:23;94611.78;;;10.18;100.00
9235;BME280;4652;42.716;23.218;2022-12-07T10:50:19;94603.53;;;10.09;100.00
9235;BME280;4652;42.716;23.218;2022-12-07T10:57:26;94598.66;;;9.92;100.00
9235;BME280;4652;42.716;23.218;2022-12-07T11:04:21;94569.50;;;10.37;100.00
9235;BME280;4652;42.716;23.218;2022-12-07T11:11:16;94575.91;;;10.22;100.00
9235;BME280;4652;42.716;23.218;2022-12-07T11:18:06;94546.75;;;9.92;100.00
9235;BME280;4652;42.716;23.218;2022-12-07T11:24:56;94551.91;;;10.26;100.00
9235;BME280;4652;42.716;23.218;2022-12-07T11:31:52;94552.44;;;10.60;100.00
9235;BME280;4652;42.716;23.218;2022-12-07T11:38:42;94552.50;;;10.87;100.00
9235;BME280;4652;42.716;23.218;2022-12-07T11:45:27;94523.19;;;10.53;100.00
9235;BME280;4652;42.716;23.218;2022-12-07T11:52:20;94527.44;;;10.87;100.00
9235;BME280;4652;42.716;23.218;2022-12-07T11:59:10;94521.34;;;10.81;100.00
9235;BME280;4652;42.716;23.218;2022-12-07T12:05:55;94511.41;;;10.95;100.00
9235;BME280;4652;42.716;23.218;2022-12-07T12:13:00;94501.00;;;11.02;100.00
9235;BME280;4652;42.716;23.218;2022-12-07T12:19:59;94493.72;;;10.76;100.00
9235;BME280;4652;42.716;23.218;2022-12-07T12:26:49;94432.13;;;10.28;100.00
9235;BME280;4652;42.716;23.218;2022-12-07T12:33:43;94480.25;;;10.62;100.00
9235;BME280;4652;42.716;23.218;2022-12-07T12:40:39;94470.06;;;10.73;100.00
9235;BME280;4652;42.716;23.218;2022-12-07T12:47:41;94468.88;;;10.79;100.00
9235;BME280;4652;42.716;23.218;2022-12-07T12:54:26;94454.22;;;10.98;100.00
9235;BME280;4652;42.716;23.218;2022-12-07T13:01:38;94472.06;;;11.21;100.00
9235;BME280;4652;42.716;23.218;2022-12-07T14:08:22;94461.34;;;10.35;100.00
9235;BME280;4652;42.716;23.218;2022-12-07T14:15:15;94467.59;;;10.30;100.00
9235;BME280;4652;42.716;23.218;2022-12-07T14:22:07;94460.88;;;10.33;100.00
9235;BME280;4652;42.716;23.218;2022-12-07T14:28:51;94461.75;;;10.10;100.00
9235;BME280;4652;42.716;23.218;2022-12-07T14:35:33;94470.00;;;9.81;100.00
9235;BME280;4652;42.716;23.218;2022-12-07T14:42:15;94473.72;;;9.48;100.00
9235;BME280;4652;42.716;23.218;2022-12-07T14:48:58;94474.44;;;9.16;100.00
9235;BME280;4652;42.716;23.218;2022-12-07T14:55:40;94480.06;;;8.96;100.00
9235;BME280;4652;42.716;23.218;2022-12-07T15:02:23;94481.88;;;8.53;100.00
9235;BME280;4652;42.716;23.218;2022-12-07T15:09:06;94498.50;;;8.21;100.00
9235;BME280;4652;42.716;23.218;2022-12-07T15:15:49;94510.66;;;7.80;100.00
9235;BME280;4652;42.716;23.218;2022-12-07T15:22:32;94506.47;;;7.63;100.00
9235;BME280;4652;42.716;23.218;2022-12-07T15:29:15;94511.56;;;7.16;100.00
9235;BME280;4652;42.716;23.218;2022-12-07T15:35:59;94528.28;;;6.83;100.00
9235;BME280;4652;42.716;23.218;2022-12-07T15:42:41;94535.34;;;6.48;100.00
9235;BME280;4652;42.716;23.218;2022-12-07T15:49:24;94545.19;;;6.63;100.00
9235;BME280;4652;42.716;23.218;2022-12-07T15:56:07;94537.47;;;6.52;100.00
9235;BME280;4652;42.716;23.218;2022-12-07T16:02:50;94546.31;;;6.42;100.00
9235;BME280;4652;42.716;23.218;2022-12-07T16:09:33;94542.31;;;6.29;100.00
9235;BME280;4652;42.716;23.218;2022-12-07T16:16:17;94536.16;;;6.14;100.00
9235;BME280;4652;42.716;23.218;2022-12-07T16:23:00;94553.56;;;6.01;100.00
9235;BME280;4652;42.716;23.218;2022-12-07T16:29:44;94559.97;;;5.95;100.00
9235;BME280;4652;42.716;23.218;2022-12-07T16:36:26;94556.69;;;5.83;100.00
9235;BME280;4652;42.716;23.218;2022-12-07T16:43:14;94568.00;;;6.20;100.00
9235;BME280;4652;42.716;23.218;2022-12-07T16:49:58;94570.13;;;6.23;100.00
9235;BME280;4652;42.716;23.218;2022-12-07T16:56:40;94587.78;;;6.34;100.00
9235;BME280;4652;42.716;23.218;2022-12-07T17:03:22;94581.91;;;6.07;100.00
9235;BME280;4652;42.716;23.218;2022-12-07T17:10:06;94578.38;;;5.91;100.00
9235;BME280;4652;42.716;23.218;2022-12-07T17:16:48;94577.03;;;5.79;100.00
9235;BME280;4652;42.716;23.218;2022-12-07T17:23:30;94581.25;;;5.65;100.00
9235;BME280;4652;42.716;23.218;2022-12-07T17:30:14;94586.53;;;5.34;100.00
9235;BME280;4652;42.716;23.218;2022-12-07T17:36:56;94587.78;;;5.17;100.00
9235;BME280;4652;42.716;23.218;2022-12-07T17:43:38;94594.19;;;5.16;100.00
9235;BME280;4652;42.716;23.218;2022-12-07T17:50:22;94597.31;;;4.98;100.00
9235;BME280;4652;42.716;23.218;2022-12-07T17:57:17;94595.91;;;4.80;100.00
9235;BME280;4652;42.716;23.218;2022-12-07T18:03:59;94602.25;;;4.74;100.00
9235;BME280;4652;42.716;23.218;2022-12-07T18:10:42;94609.13;;;4.65;100.00
9235;BME280;4652;42.716;23.218;2022-12-07T18:17:24;94625.94;;;4.65;100.00
9235;BME280;4652;42.716;23.218;2022-12-07T18:24:09;94622.63;;;4.48;100.00
9235;BME280;4652;42.716;23.218;2022-12-07T18:30:54;94637.22;;;4.41;100.00
9235;BME280;4652;42.716;23.218;2022-12-07T18:37:36;94639.69;;;4.15;100.00
9235;BME280;4652;42.716;23.218;2022-12-07T18:44:18;94650.81;;;4.07;100.00
9235;BME280;4652;42.716;23.218;2022-12-07T18:51:03;94648.94;;;3.81;100.00
9235;BME280;4652;42.716;23.218;2022-12-07T18:57:45;94657.44;;;3.78;100.00
9235;BME280;4652;42.716;23.218;2022-12-07T19:04:28;94655.84;;;3.77;100.00
9235;BME280;4652;42.716;23.218;2022-12-07T19:11:17;94668.09;;;3.78;100.00
9235;BME280;4652;42.716;23.218;2022-12-07T19:18:16;94666.31;;;3.84;100.00
9235;BME280;4652;42.716;23.218;2022-12-07T19:24:58;94669.56;;;3.64;100.00
9235;BME280;4652;42.716;23.218;2022-12-07T19:31:42;94667.88;;;3.58;100.00
9235;BME280;4652;42.716;23.218;2022-12-07T19:38:24;94668.59;;;3.53;100.00
9235;BME280;4652;42.716;23.218;2022-12-07T19:45:06;94679.63;;;3.40;100.00
9235;BME280;4652;42.716;23.218;2022-12-07T19:51:51;94677.97;;;3.34;100.00
9235;BME280;4652;42.716;23.218;2022-12-07T19:58:33;94685.59;;;3.26;100.00
9235;BME280;4652;42.716;23.218;2022-12-07T20:08:11;94648.03;;;3.22;100.00
9235;BME280;4652;42.716;23.218;2022-12-07T20:14:53;94688.03;;;3.11;100.00
9235;BME280;4652;42.716;23.218;2022-12-07T20:21:35;94684.69;;;2.98;100.00
9235;BME280;4652;42.716;23.218;2022-12-07T20:28:19;94693.72;;;2.97;100.00
9235;BME280;4652;42.716;23.218;2022-12-07T20:35:01;94700.09;;;3.18;100.00
9235;BME280;4652;42.716;23.218;2022-12-07T20:41:42;94701.22;;;3.01;100.00
9235;BME280;4652;42.716;23.218;2022-12-07T20:48:43;94717.41;;;2.82;100.00
9235;BME280;4652;42.716;23.218;2022-12-07T20:55:25;94721.84;;;2.93;100.00
9235;BME280;4652;42.716;23.218;2022-12-07T21:02:09;94720.38;;;3.03;100.00
9235;BME280;4652;42.716;23.218;2022-12-07T21:08:54;94713.06;;;2.93;100.00
9235;BME280;4652;42.716;23.218;2022-12-07T21:15:37;94710.81;;;2.68;100.00
9235;BME280;4652;42.716;23.218;2022-12-07T21:22:18;94701.34;;;2.72;100.00
9235;BME280;4652;42.716;23.218;2022-12-07T21:29:03;94699.56;;;2.61;100.00
9235;BME280;4652;42.716;23.218;2022-12-07T21:35:45;94712.19;;;2.54;100.00
9235;BME280;4652;42.716;23.218;2022-12-07T21:42:27;94711.00;;;2.45;100.00
9235;BME280;4652;42.716;23.218;2022-12-07T21:49:12;94707.53;;;2.45;100.00
9235;BME280;4652;42.716;23.218;2022-12-07T21:55:55;94706.66;;;2.39;100.00
9235;BME280;4652;42.716;23.218;2022-12-07T22:02:37;94693.69;;;2.26;100.00
9235;BME280;4652;42.716;23.218;2022-12-07T22:09:21;94706.00;;;2.32;100.00
9235;BME280;4652;42.716;23.218;2022-12-07T22:16:04;94708.81;;;2.42;100.00
9235;BME280;4652;42.716;23.218;2022-12-07T22:22:46;94699.31;;;2.29;100.00
9235;BME280;4652;42.716;23.218;2022-12-07T22:29:30;94711.63;;;2.52;100.00
9235;BME280;4652;42.716;23.218;2022-12-07T22:36:12;94703.13;;;2.50;100.00
9235;BME280;4652;42.716;23.218;2022-12-07T22:42:53;94712.88;;;3.00;100.00
9235;BME280;4652;42.716;23.218;2022-12-07T22:49:37;94688.59;;;3.13;100.00
9235;BME280;4652;42.716;23.218;2022-12-07T22:56:19;94685.44;;;3.16;100.00
9235;BME280;4652;42.716;23.218;2022-12-07T23:03:01;94672.34;;;3.09;100.00
9235;BME280;4652;42.716;23.218;2022-12-07T23:09:45;94655.28;;;2.88;100.00
9235;BME280;4652;42.716;23.218;2022-12-07T23:16:27;94698.34;;;3.07;100.00
9235;BME280;4652;42.716;23.218;2022-12-07T23:23:09;94691.13;;;3.03;100.00
9235;BME280;4652;42.716;23.218;2022-12-07T23:29:52;94693.03;;;3.07;100.00
9235;BME280;4652;42.716;23.218;2022-12-07T23:36:34;94681.47;;;2.96;100.00
9235;BME280;4652;42.716;23.218;2022-12-07T23:43:16;94691.22;;;2.91;100.00
9235;BME280;4652;42.716;23.218;2022-12-07T23:49:59;94689.78;;;2.83;100.00
9235;BME280;4652;42.716;23.218;2022-12-07T23:56:43;94715.72;;;2.93;100.00
